sensor_id;sensor_type;location;lat;lon;timestamp;P1;durP1;ratioP1;P2;durP2;ratioP2
9880;SDS011;4979;51.014;6.678;2022-08-21T00:01:33;8.55;;;4.50;;
9880;SDS011;4979;51.014;6.678;2022-08-21T00:04:03;7.05;;;4.43;;
9880;SDS011;4979;51.014;6.678;2022-08-21T00:06:32;6.55;;;4.53;;
9880;SDS011;4979;51.014;6.678;2022-08-21T00:08:59;6.95;;;4.68;;
9880;SDS011;4979;51.014;6.678;2022-08-21T00:11:25;8.10;;;5.22;;
9880;SDS011;4979;51.014;6.678;2022-08-21T00:13:52;7.20;;;4.57;;
9880;SDS011;4979;51.014;6.678;2022-08-21T00:16:18;5.93;;;3.80;;
9880;SDS011;4979;51.014;6.678;2022-08-21T00:18:43;8.80;;;4.78;;
9880;SDS011;4979;51.014;6.678;2022-08-21T00:21:10;14.98;;;4.40;;
9880;SDS011;4979;51.014;6.678;2022-08-21T00:23:37;10.45;;;4.68;;
9880;SDS011;4979;51.014;6.678;2022-08-21T00:26:02;9.82;;;4.85;;
9880;SDS011;4979;51.014;6.678;2022-08-21T00:28:28;10.77;;;4.50;;
9880;SDS011;4979;51.014;6.678;2022-08-21T00:30:54;8.93;;;4.97;;
9880;SDS011;4979;51.014;6.678;2022-08-21T00:33:19;8.25;;;4.10;;
9880;SDS011;4979;51.014;6.678;2022-08-21T00:35:45;10.68;;;4.97;;
9880;SDS011;4979;51.014;6.678;2022-08-21T00:38:11;10.90;;;5.68;;
9880;SDS011;4979;51.014;6.678;2022-08-21T00:43:15;11.07;;;4.38;;
9880;SDS011;4979;51.014;6.678;2022-08-21T00:45:42;9.77;;;5.18;;
9880;SDS011;4979;51.014;6.678;2022-08-21T00:48:08;12.10;;;4.60;;
9880;SDS011;4979;51.014;6.678;2022-08-21T00:50:35;12.82;;;4.85;;
9880;SDS011;4979;51.014;6.678;2022-08-21T00:53:07;13.07;;;4.88;;
9880;SDS011;4979;51.014;6.678;2022-08-21T00:55:35;9.15;;;4.53;;
9880;SDS011;4979;51.014;6.678;2022-08-21T00:58:02;10.98;;;4.68;;
9880;SDS011;4979;51.014;6.678;2022-08-21T01:00:31;7.85;;;4.35;;
9880;SDS011;4979;51.014;6.678;2022-08-21T01:02:59;10.32;;;4.85;;
9880;SDS011;4979;51.014;6.678;2022-08-21T01:05:30;8.50;;;4.63;;
9880;SDS011;4979;51.014;6.678;2022-08-21T01:07:57;12.48;;;5.97;;
9880;SDS011;4979;51.014;6.678;2022-08-21T01:10:23;9.65;;;5.57;;
9880;SDS011;4979;51.014;6.678;2022-08-21T01:12:49;8.43;;;4.70;;
9880;SDS011;4979;51.014;6.678;2022-08-21T01:15:20;9.65;;;5.32;;
9880;SDS011;4979;51.014;6.678;2022-08-21T01:17:49;7.53;;;5.25;;
9880;SDS011;4979;51.014;6.678;2022-08-21T01:20:15;10.25;;;5.32;;
9880;SDS011;4979;51.014;6.678;2022-08-21T01:22:41;7.45;;;5.40;;
9880;SDS011;4979;51.014;6.678;2022-08-21T01:25:08;8.48;;;5.05;;
9880;SDS011;4979;51.014;6.678;2022-08-21T01:27:35;7.72;;;4.15;;
9880;SDS011;4979;51.014;6.678;2022-08-21T01:30:04;11.40;;;5.32;;
9880;SDS011;4979;51.014;6.678;2022-08-21T01:32:35;7.43;;;4.82;;
9880;SDS011;4979;51.014;6.678;2022-08-21T01:35:00;7.72;;;5.18;;
9880;SDS011;4979;51.014;6.678;2022-08-21T01:37:27;8.10;;;5.60;;
9880;SDS011;4979;51.014;6.678;2022-08-21T01:39:53;8.80;;;5.00;;
9880;SDS011;4979;51.014;6.678;2022-08-21T01:42:18;10.60;;;4.90;;
9880;SDS011;4979;51.014;6.678;2022-08-21T01:44:44;7.43;;;4.65;;
9880;SDS011;4979;51.014;6.678;2022-08-21T01:47:11;7.75;;;4.45;;
9880;SDS011;4979;51.014;6.678;2022-08-21T01:49:38;8.10;;;4.38;;
9880;SDS011;4979;51.014;6.678;2022-08-21T01:52:04;9.73;;;5.22;;
9880;SDS011;4979;51.014;6.678;2022-08-21T01:54:30;7.43;;;4.85;;
9880;SDS011;4979;51.014;6.678;2022-08-21T01:56:57;8.88;;;4.75;;
9880;SDS011;4979;51.014;6.678;2022-08-21T01:59:24;8.05;;;4.90;;
9880;SDS011;4979;51.014;6.678;2022-08-21T02:01:51;10.73;;;5.20;;
9880;SDS011;4979;51.014;6.678;2022-08-21T02:04:19;8.60;;;4.72;;
9880;SDS011;4979;51.014;6.678;2022-08-21T02:06:45;9.00;;;4.93;;
9880;SDS011;4979;51.014;6.678;2022-08-21T02:09:10;7.50;;;5.18;;
9880;SDS011;4979;51.014;6.678;2022-08-21T02:11:36;6.82;;;4.90;;
9880;SDS011;4979;51.014;6.678;2022-08-21T02:14:09;13.48;;;5.18;;
9880;SDS011;4979;51.014;6.678;2022-08-21T02:16:37;9.35;;;5.00;;
9880;SDS011;4979;51.014;6.678;2022-08-21T02:19:04;9.23;;;5.63;;
9880;SDS011;4979;51.014;6.678;2022-08-21T02:21:30;6.30;;;4.95;;
9880;SDS011;4979;51.014;6.678;2022-08-21T02:23:56;6.97;;;5.03;;
9880;SDS011;4979;51.014;6.678;2022-08-21T02:26:22;9.77;;;4.93;;
9880;SDS011;4979;51.014;6.678;2022-08-21T02:28:48;8.85;;;5.60;;
9880;SDS011;4979;51.014;6.678;2022-08-21T02:31:13;12.65;;;5.15;;
9880;SDS011;4979;51.014;6.678;2022-08-21T02:33:39;8.32;;;5.45;;
9880;SDS011;4979;51.014;6.678;2022-08-21T02:36:05;10.23;;;5.70;;
9880;SDS011;4979;51.014;6.678;2022-08-21T02:38:32;8.63;;;5.43;;
9880;SDS011;4979;51.014;6.678;2022-08-21T02:41:02;10.52;;;5.65;;
9880;SDS011;4979;51.014;6.678;2022-08-21T02:43:29;14.55;;;5.95;;
9880;SDS011;4979;51.014;6.678;2022-08-21T02:45:56;10.25;;;5.22;;
9880;SDS011;4979;51.014;6.678;2022-08-21T02:48:23;8.98;;;5.80;;
9880;SDS011;4979;51.014;6.678;2022-08-21T02:50:52;9.07;;;6.15;;
9880;SDS011;4979;51.014;6.678;2022-08-21T02:53:22;13.63;;;6.57;;
9880;SDS011;4979;51.014;6.678;2022-08-21T02:55:49;13.55;;;5.70;;
9880;SDS011;4979;51.014;6.678;2022-08-21T02:58:16;10.80;;;6.05;;
9880;SDS011;4979;51.014;6.678;2022-08-21T03:00:45;15.30;;;7.82;;
9880;SDS011;4979;51.014;6.678;2022-08-21T03:03:11;12.27;;;7.63;;
9880;SDS011;4979;51.014;6.678;2022-08-21T03:05:38;17.52;;;8.77;;
9880;SDS011;4979;51.014;6.678;2022-08-21T03:08:04;10.60;;;6.80;;
9880;SDS011;4979;51.014;6.678;2022-08-21T03:10:34;12.20;;;6.80;;
9880;SDS011;4979;51.014;6.678;2022-08-21T03:13:01;14.63;;;8.55;;
9880;SDS011;4979;51.014;6.678;2022-08-21T03:15:28;11.73;;;7.50;;
9880;SDS011;4979;51.014;6.678;2022-08-21T03:17:53;19.63;;;8.95;;
9880;SDS011;4979;51.014;6.678;2022-08-21T03:20:20;25.48;;;10.18;;
9880;SDS011;4979;51.014;6.678;2022-08-21T03:22:48;20.80;;;9.48;;
9880;SDS011;4979;51.014;6.678;2022-08-21T03:25:14;17.90;;;9.55;;
9880;SDS011;4979;51.014;6.678;2022-08-21T03:27:40;15.75;;;8.20;;
9880;SDS011;4979;51.014;6.678;2022-08-21T03:30:06;16.73;;;7.32;;
9880;SDS011;4979;51.014;6.678;2022-08-21T03:32:33;12.65;;;6.90;;
9880;SDS011;4979;51.014;6.678;2022-08-21T03:35:00;14.20;;;6.43;;
9880;SDS011;4979;51.014;6.678;2022-08-21T03:37:27;14.38;;;6.13;;
9880;SDS011;4979;51.014;6.678;2022-08-21T03:39:53;12.10;;;5.72;;
9880;SDS011;4979;51.014;6.678;2022-08-21T03:42:18;10.70;;;6.18;;
9880;SDS011;4979;51.014;6.678;2022-08-21T03:44:44;14.98;;;6.88;;
9880;SDS011;4979;51.014;6.678;2022-08-21T03:47:10;12.15;;;6.68;;
9880;SDS011;4979;51.014;6.678;2022-08-21T03:49:36;11.77;;;6.88;;
9880;SDS011;4979;51.014;6.678;2022-08-21T03:52:02;12.52;;;7.15;;
9880;SDS011;4979;51.014;6.678;2022-08-21T03:54:28;10.93;;;6.50;;
9880;SDS011;4979;51.014;6.678;2022-08-21T03:56:54;10.77;;;5.63;;
9880;SDS011;4979;51.014;6.678;2022-08-21T03:59:20;14.18;;;5.97;;
9880;SDS011;4979;51.014;6.678;2022-08-21T04:01:57;13.27;;;6.45;;
9880;SDS011;4979;51.014;6.678;2022-08-21T04:04:25;14.13;;;6.28;;
9880;SDS011;4979;51.014;6.678;2022-08-21T04:06:51;13.20;;;7.95;;
9880;SDS011;4979;51.014;6.678;2022-08-21T04:09:17;11.73;;;6.60;;
9880;SDS011;4979;51.014;6.678;2022-08-21T04:11:44;12.32;;;6.63;;
9880;SDS011;4979;51.014;6.678;2022-08-21T04:14:10;10.95;;;6.50;;
9880;SDS011;4979;51.014;6.678;2022-08-21T04:16:37;8.65;;;6.07;;
9880;SDS011;4979;51.014;6.678;2022-08-21T04:19:02;9.38;;;5.35;;
9880;SDS011;4979;51.014;6.678;2022-08-21T04:21:28;7.43;;;5.18;;
9880;SDS011;4979;51.014;6.678;2022-08-21T04:23:55;8.77;;;6.30;;
9880;SDS011;4979;51.014;6.678;2022-08-21T04:26:21;11.27;;;5.50;;
9880;SDS011;4979;51.014;6.678;2022-08-21T04:28:47;8.38;;;5.38;;
9880;SDS011;4979;51.014;6.678;2022-08-21T04:31:12;12.40;;;6.63;;
9880;SDS011;4979;51.014;6.678;2022-08-21T04:33:38;10.57;;;5.78;;
9880;SDS011;4979;51.014;6.678;2022-08-21T04:36:03;7.93;;;5.05;;
9880;SDS011;4979;51.014;6.678;2022-08-21T04:38:29;12.48;;;6.03;;
9880;SDS011;4979;51.014;6.678;2022-08-21T04:40:56;10.50;;;6.63;;
9880;SDS011;4979;51.014;6.678;2022-08-21T04:43:22;9.57;;;5.53;;
9880;SDS011;4979;51.014;6.678;2022-08-21T04:45:48;11.07;;;5.82;;
9880;SDS011;4979;51.014;6.678;2022-08-21T04:48:15;8.55;;;5.68;;
9880;SDS011;4979;51.014;6.678;2022-08-21T04:53:18;8.30;;;5.22;;
9880;SDS011;4979;51.014;6.678;2022-08-21T04:56:08;10.70;;;5.53;;
9880;SDS011;4979;51.014;6.678;2022-08-21T04:58:37;10.95;;;5.22;;
9880;SDS011;4979;51.014;6.678;2022-08-21T05:01:04;9.95;;;5.15;;
9880;SDS011;4979;51.014;6.678;2022-08-21T05:03:32;10.68;;;6.28;;
9880;SDS011;4979;51.014;6.678;2022-08-21T05:05:59;10.18;;;5.28;;
9880;SDS011;4979;51.014;6.678;2022-08-21T05:08:25;13.73;;;5.90;;
9880;SDS011;4979;51.014;6.678;2022-08-21T05:10:53;14.25;;;5.72;;
9880;SDS011;4979;51.014;6.678;2022-08-21T05:13:19;12.07;;;6.13;;
9880;SDS011;4979;51.014;6.678;2022-08-21T05:15:45;9.70;;;5.78;;
9880;SDS011;4979;51.014;6.678;2022-08-21T05:18:11;13.43;;;5.72;;
9880;SDS011;4979;51.014;6.678;2022-08-21T05:20:37;14.43;;;6.15;;
9880;SDS011;4979;51.014;6.678;2022-08-21T05:23:06;10.32;;;6.25;;
9880;SDS011;4979;51.014;6.678;2022-08-21T05:25:33;10.65;;;5.38;;
9880;SDS011;4979;51.014;6.678;2022-08-21T05:27:59;15.18;;;6.40;;
9880;SDS011;4979;51.014;6.678;2022-08-21T05:30:25;12.95;;;6.20;;
9880;SDS011;4979;51.014;6.678;2022-08-21T05:32:55;13.70;;;6.55;;
9880;SDS011;4979;51.014;6.678;2022-08-21T05:35:21;11.10;;;5.13;;
9880;SDS011;4979;51.014;6.678;2022-08-21T05:37:47;11.30;;;5.28;;
9880;SDS011;4979;51.014;6.678;2022-08-21T05:40:13;7.78;;;4.72;;
9880;SDS011;4979;51.014;6.678;2022-08-21T05:42:39;10.88;;;5.18;;
9880;SDS011;4979;51.014;6.678;2022-08-21T05:45:04;14.52;;;4.88;;
9880;SDS011;4979;51.014;6.678;2022-08-21T05:47:30;8.75;;;4.47;;
9880;SDS011;4979;51.014;6.678;2022-08-21T05:49:56;10.15;;;4.18;;
9880;SDS011;4979;51.014;6.678;2022-08-21T05:52:21;10.18;;;4.45;;
9880;SDS011;4979;51.014;6.678;2022-08-21T05:54:47;8.35;;;4.32;;
9880;SDS011;4979;51.014;6.678;2022-08-21T05:57:14;7.10;;;4.00;;
9880;SDS011;4979;51.014;6.678;2022-08-21T05:59:39;12.45;;;3.88;;
9880;SDS011;4979;51.014;6.678;2022-08-21T06:02:05;9.60;;;4.30;;
9880;SDS011;4979;51.014;6.678;2022-08-21T06:04:35;9.88;;;4.10;;
9880;SDS011;4979;51.014;6.678;2022-08-21T06:07:01;8.75;;;4.80;;
9880;SDS011;4979;51.014;6.678;2022-08-21T06:09:27;11.68;;;3.78;;
9880;SDS011;4979;51.014;6.678;2022-08-21T06:11:52;8.25;;;4.20;;
9880;SDS011;4979;51.014;6.678;2022-08-21T06:14:18;7.00;;;3.65;;
9880;SDS011;4979;51.014;6.678;2022-08-21T06:16:43;10.18;;;5.03;;
9880;SDS011;4979;51.014;6.678;2022-08-21T06:19:09;9.63;;;4.00;;
9880;SDS011;4979;51.014;6.678;2022-08-21T06:21:34;11.75;;;4.50;;
9880;SDS011;4979;51.014;6.678;2022-08-21T06:24:00;11.50;;;4.20;;
9880;SDS011;4979;51.014;6.678;2022-08-21T06:26:25;10.32;;;4.25;;
9880;SDS011;4979;51.014;6.678;2022-08-21T06:28:52;11.93;;;3.60;;
9880;SDS011;4979;51.014;6.678;2022-08-21T06:31:21;9.15;;;3.53;;
9880;SDS011;4979;51.014;6.678;2022-08-21T06:33:49;10.73;;;3.67;;
9880;SDS011;4979;51.014;6.678;2022-08-21T06:36:15;8.15;;;3.22;;
9880;SDS011;4979;51.014;6.678;2022-08-21T06:38:41;7.80;;;3.15;;
9880;SDS011;4979;51.014;6.678;2022-08-21T06:41:07;7.88;;;3.28;;
9880;SDS011;4979;51.014;6.678;2022-08-21T06:43:33;5.03;;;2.97;;
9880;SDS011;4979;51.014;6.678;2022-08-21T06:45:58;7.13;;;3.45;;
9880;SDS011;4979;51.014;6.678;2022-08-21T06:48:24;6.43;;;3.15;;
9880;SDS011;4979;51.014;6.678;2022-08-21T06:50:50;10.98;;;3.42;;
9880;SDS011;4979;51.014;6.678;2022-08-21T06:53:17;4.45;;;2.72;;
9880;SDS011;4979;51.014;6.678;2022-08-21T06:55:44;6.53;;;3.08;;
9880;SDS011;4979;51.014;6.678;2022-08-21T06:58:10;7.93;;;3.30;;
9880;SDS011;4979;51.014;6.678;2022-08-21T07:00:38;10.10;;;3.10;;
9880;SDS011;4979;51.014;6.678;2022-08-21T07:03:06;5.97;;;2.88;;
9880;SDS011;4979;51.014;6.678;2022-08-21T07:05:32;8.25;;;3.13;;
9880;SDS011;4979;51.014;6.678;2022-08-21T07:07:58;7.50;;;3.65;;
9880;SDS011;4979;51.014;6.678;2022-08-21T07:10:24;7.50;;;2.60;;
9880;SDS011;4979;51.014;6.678;2022-08-21T07:12:51;5.63;;;3.08;;
9880;SDS011;4979;51.014;6.678;2022-08-21T07:15:17;6.57;;;2.63;;
9880;SDS011;4979;51.014;6.678;2022-08-21T07:17:43;4.50;;;2.60;;
9880;SDS011;4979;51.014;6.678;2022-08-21T07:20:09;5.55;;;2.83;;
9880;SDS011;4979;51.014;6.678;2022-08-21T07:22:35;8.35;;;3.47;;
9880;SDS011;4979;51.014;6.678;2022-08-21T07:25:03;7.65;;;3.05;;
9880;SDS011;4979;51.014;6.678;2022-08-21T07:27:29;8.30;;;3.05;;
9880;SDS011;4979;51.014;6.678;2022-08-21T07:29:56;6.80;;;2.95;;
9880;SDS011;4979;51.014;6.678;2022-08-21T07:32:22;8.20;;;3.65;;
9880;SDS011;4979;51.014;6.678;2022-08-21T07:34:48;9.05;;;3.13;;
9880;SDS011;4979;51.014;6.678;2022-08-21T07:37:13;9.60;;;3.53;;
9880;SDS011;4979;51.014;6.678;2022-08-21T07:39:39;6.47;;;2.78;;
9880;SDS011;4979;51.014;6.678;2022-08-21T07:42:04;7.80;;;3.05;;
9880;SDS011;4979;51.014;6.678;2022-08-21T07:44:30;6.00;;;2.78;;
9880;SDS011;4979;51.014;6.678;2022-08-21T07:46:56;5.70;;;2.63;;
9880;SDS011;4979;51.014;6.678;2022-08-21T07:49:22;4.40;;;2.10;;
9880;SDS011;4979;51.014;6.678;2022-08-21T07:51:47;5.43;;;2.50;;
9880;SDS011;4979;51.014;6.678;2022-08-21T07:54:13;5.95;;;2.38;;
9880;SDS011;4979;51.014;6.678;2022-08-21T07:56:38;2.10;;;1.50;;
9880;SDS011;4979;51.014;6.678;2022-08-21T07:59:04;3.40;;;1.58;;
9880;SDS011;4979;51.014;6.678;2022-08-21T08:01:29;2.95;;;1.67;;
9880;SDS011;4979;51.014;6.678;2022-08-21T08:03:55;3.13;;;1.52;;
9880;SDS011;4979;51.014;6.678;2022-08-21T08:06:21;2.58;;;1.38;;
9880;SDS011;4979;51.014;6.678;2022-08-21T08:08:48;4.60;;;1.48;;
9880;SDS011;4979;51.014;6.678;2022-08-21T08:11:14;3.13;;;1.50;;
9880;SDS011;4979;51.014;6.678;2022-08-21T08:13:47;2.35;;;1.55;;
9880;SDS011;4979;51.014;6.678;2022-08-21T08:16:15;3.25;;;1.70;;
9880;SDS011;4979;51.014;6.678;2022-08-21T08:18:40;5.90;;;1.60;;
9880;SDS011;4979;51.014;6.678;2022-08-21T08:21:07;6.25;;;2.05;;
9880;SDS011;4979;51.014;6.678;2022-08-21T08:23:33;4.40;;;1.45;;
9880;SDS011;4979;51.014;6.678;2022-08-21T08:25:59;4.35;;;1.65;;
9880;SDS011;4979;51.014;6.678;2022-08-21T08:28:27;7.22;;;1.67;;
9880;SDS011;4979;51.014;6.678;2022-08-21T08:30:54;4.50;;;1.40;;
9880;SDS011;4979;51.014;6.678;2022-08-21T08:33:20;4.57;;;1.33;;
9880;SDS011;4979;51.014;6.678;2022-08-21T08:35:46;3.58;;;1.30;;
9880;SDS011;4979;51.014;6.678;2022-08-21T08:38:14;4.38;;;1.33;;
9880;SDS011;4979;51.014;6.678;2022-08-21T08:43:28;8.57;;;1.40;;
9880;SDS011;4979;51.014;6.678;2022-08-21T08:45:55;3.78;;;1.55;;
9880;SDS011;4979;51.014;6.678;2022-08-21T08:48:30;2.60;;;1.15;;
9880;SDS011;4979;51.014;6.678;2022-08-21T08:51:04;3.15;;;1.52;;
9880;SDS011;4979;51.014;6.678;2022-08-21T08:53:43;3.58;;;1.88;;
9880;SDS011;4979;51.014;6.678;2022-08-21T08:56:26;3.05;;;1.40;;
9880;SDS011;4979;51.014;6.678;2022-08-21T08:58:57;4.35;;;1.80;;
9880;SDS011;4979;51.014;6.678;2022-08-21T09:01:29;3.65;;;1.65;;
9880;SDS011;4979;51.014;6.678;2022-08-21T09:03:54;4.55;;;1.95;;
9880;SDS011;4979;51.014;6.678;2022-08-21T09:12:29;2.42;;;1.38;;
9880;SDS011;4979;51.014;6.678;2022-08-21T09:28:32;5.43;;;2.17;;
9880;SDS011;4979;51.014;6.678;2022-08-21T09:30:59;3.42;;;1.38;;
9880;SDS011;4979;51.014;6.678;2022-08-21T09:33:28;2.30;;;1.35;;
9880;SDS011;4979;51.014;6.678;2022-08-21T09:35:55;5.32;;;1.80;;
9880;SDS011;4979;51.014;6.678;2022-08-21T09:38:26;2.55;;;1.52;;
9880;SDS011;4979;51.014;6.678;2022-08-21T09:41:10;5.57;;;1.75;;
9880;SDS011;4979;51.014;6.678;2022-08-21T09:43:36;5.90;;;1.65;;
9880;SDS011;4979;51.014;6.678;2022-08-21T09:46:07;4.78;;;1.83;;
9880;SDS011;4979;51.014;6.678;2022-08-21T09:48:41;3.65;;;1.40;;
9880;SDS011;4979;51.014;6.678;2022-08-21T09:51:22;5.28;;;1.65;;
9880;SDS011;4979;51.014;6.678;2022-08-21T09:53:58;3.00;;;1.60;;
9880;SDS011;4979;51.014;6.678;2022-08-21T09:56:32;4.50;;;1.60;;
9880;SDS011;4979;51.014;6.678;2022-08-21T09:59:29;6.60;;;1.90;;
9880;SDS011;4979;51.014;6.678;2022-08-21T10:01:57;3.58;;;1.40;;
9880;SDS011;4979;51.014;6.678;2022-08-21T10:04:35;6.63;;;1.80;;
9880;SDS011;4979;51.014;6.678;2022-08-21T10:09:37;7.68;;;1.70;;
9880;SDS011;4979;51.014;6.678;2022-08-21T10:17:12;4.18;;;1.73;;
9880;SDS011;4979;51.014;6.678;2022-08-21T10:22:32;3.38;;;1.70;;
9880;SDS011;4979;51.014;6.678;2022-08-21T10:27:40;6.88;;;1.70;;
9880;SDS011;4979;51.014;6.678;2022-08-21T10:44:49;4.80;;;2.05;;
9880;SDS011;4979;51.014;6.678;2022-08-21T10:47:27;5.90;;;1.90;;
9880;SDS011;4979;51.014;6.678;2022-08-21T10:55:31;3.97;;;1.45;;
9880;SDS011;4979;51.014;6.678;2022-08-21T10:58:08;4.55;;;1.90;;
9880;SDS011;4979;51.014;6.678;2022-08-21T11:00:41;5.70;;;2.10;;
9880;SDS011;4979;51.014;6.678;2022-08-21T11:03:16;4.28;;;1.67;;
9880;SDS011;4979;51.014;6.678;2022-08-21T11:05:57;4.40;;;2.03;;
9880;SDS011;4979;51.014;6.678;2022-08-21T11:08:43;7.15;;;1.88;;
9880;SDS011;4979;51.014;6.678;2022-08-21T11:13:49;6.75;;;2.00;;
9880;SDS011;4979;51.014;6.678;2022-08-21T11:16:33;3.17;;;1.70;;
9880;SDS011;4979;51.014;6.678;2022-08-21T11:21:43;4.20;;;1.75;;
9880;SDS011;4979;51.014;6.678;2022-08-21T11:29:58;5.60;;;1.80;;
9880;SDS011;4979;51.014;6.678;2022-08-21T11:38:11;6.53;;;2.05;;
9880;SDS011;4979;51.014;6.678;2022-08-21T11:45:59;3.60;;;1.67;;
9880;SDS011;4979;51.014;6.678;2022-08-21T11:51:33;4.85;;;1.50;;
9880;SDS011;4979;51.014;6.678;2022-08-21T11:54:09;4.43;;;1.75;;
9880;SDS011;4979;51.014;6.678;2022-08-21T11:56:43;5.15;;;2.10;;
9880;SDS011;4979;51.014;6.678;2022-08-21T12:00:17;4.25;;;1.52;;
9880;SDS011;4979;51.014;6.678;2022-08-21T12:02:16;5.30;;;1.63;;
9880;SDS011;4979;51.014;6.678;2022-08-21T12:04:52;2.53;;;1.60;;
9880;SDS011;4979;51.014;6.678;2022-08-21T12:10:06;6.32;;;2.05;;
9880;SDS011;4979;51.014;6.678;2022-08-21T12:12:37;3.42;;;1.73;;
9880;SDS011;4979;51.014;6.678;2022-08-21T12:15:07;3.17;;;1.77;;
9880;SDS011;4979;51.014;6.678;2022-08-21T12:17:57;4.25;;;2.05;;
9880;SDS011;4979;51.014;6.678;2022-08-21T12:25:41;3.15;;;1.98;;
9880;SDS011;4979;51.014;6.678;2022-08-21T12:28:10;3.10;;;1.67;;
9880;SDS011;4979;51.014;6.678;2022-08-21T12:30:40;5.05;;;2.00;;
9880;SDS011;4979;51.014;6.678;2022-08-21T12:33:21;5.20;;;1.98;;
9880;SDS011;4979;51.014;6.678;2022-08-21T12:36:02;5.57;;;2.00;;
9880;SDS011;4979;51.014;6.678;2022-08-21T12:41:27;4.53;;;1.85;;
9880;SDS011;4979;51.014;6.678;2022-08-21T12:44:04;5.30;;;1.80;;
9880;SDS011;4979;51.014;6.678;2022-08-21T12:46:47;5.07;;;2.00;;
9880;SDS011;4979;51.014;6.678;2022-08-21T12:49:26;8.88;;;2.25;;
9880;SDS011;4979;51.014;6.678;2022-08-21T12:54:30;4.97;;;2.08;;
9880;SDS011;4979;51.014;6.678;2022-08-21T12:57:03;4.78;;;2.33;;
9880;SDS011;4979;51.014;6.678;2022-08-21T12:59:30;4.05;;;1.88;;
9880;SDS011;4979;51.014;6.678;2022-08-21T13:01:58;2.75;;;2.00;;
9880;SDS011;4979;51.014;6.678;2022-08-21T13:04:36;3.92;;;1.55;;
9880;SDS011;4979;51.014;6.678;2022-08-21T13:07:12;4.13;;;2.00;;
9880;SDS011;4979;51.014;6.678;2022-08-21T13:09:46;4.32;;;2.15;;
9880;SDS011;4979;51.014;6.678;2022-08-21T13:12:23;3.42;;;1.60;;
9880;SDS011;4979;51.014;6.678;2022-08-21T13:14:50;3.38;;;1.50;;
9880;SDS011;4979;51.014;6.678;2022-08-21T13:17:18;3.15;;;1.58;;
9880;SDS011;4979;51.014;6.678;2022-08-21T13:22:48;4.78;;;1.50;;
9880;SDS011;4979;51.014;6.678;2022-08-21T13:25:15;7.07;;;1.73;;
9880;SDS011;4979;51.014;6.678;2022-08-21T13:27:44;4.07;;;1.50;;
9880;SDS011;4979;51.014;6.678;2022-08-21T13:30:21;5.18;;;1.67;;
9880;SDS011;4979;51.014;6.678;2022-08-21T13:32:49;2.80;;;1.35;;
9880;SDS011;4979;51.014;6.678;2022-08-21T13:35:21;4.65;;;1.58;;
9880;SDS011;4979;51.014;6.678;2022-08-21T13:37:50;2.30;;;1.33;;
9880;SDS011;4979;51.014;6.678;2022-08-21T13:40:25;2.08;;;1.55;;
9880;SDS011;4979;51.014;6.678;2022-08-21T13:42:57;2.63;;;1.40;;
9880;SDS011;4979;51.014;6.678;2022-08-21T13:45:26;3.38;;;1.60;;
9880;SDS011;4979;51.014;6.678;2022-08-21T13:47:56;2.38;;;1.40;;
9880;SDS011;4979;51.014;6.678;2022-08-21T13:50:24;1.98;;;1.50;;
9880;SDS011;4979;51.014;6.678;2022-08-21T13:52:55;3.13;;;1.35;;
9880;SDS011;4979;51.014;6.678;2022-08-21T13:55:34;1.63;;;1.20;;
9880;SDS011;4979;51.014;6.678;2022-08-21T13:58:02;4.60;;;1.50;;
9880;SDS011;4979;51.014;6.678;2022-08-21T14:00:30;5.63;;;1.67;;
9880;SDS011;4979;51.014;6.678;2022-08-21T14:03:07;3.20;;;1.40;;
9880;SDS011;4979;51.014;6.678;2022-08-21T14:05:42;2.15;;;1.20;;
9880;SDS011;4979;51.014;6.678;2022-08-21T14:08:12;3.13;;;1.45;;
9880;SDS011;4979;51.014;6.678;2022-08-21T14:10:47;3.42;;;1.48;;
9880;SDS011;4979;51.014;6.678;2022-08-21T14:16:43;3.72;;;1.35;;
9880;SDS011;4979;51.014;6.678;2022-08-21T14:19:12;2.15;;;1.48;;
9880;SDS011;4979;51.014;6.678;2022-08-21T14:21:44;2.45;;;1.25;;
9880;SDS011;4979;51.014;6.678;2022-08-21T14:24:29;3.90;;;1.50;;
9880;SDS011;4979;51.014;6.678;2022-08-21T14:26:56;1.95;;;1.42;;
9880;SDS011;4979;51.014;6.678;2022-08-21T14:29:31;4.57;;;1.48;;
9880;SDS011;4979;51.014;6.678;2022-08-21T14:32:08;3.25;;;1.55;;
9880;SDS011;4979;51.014;6.678;2022-08-21T14:34:44;2.05;;;1.35;;
9880;SDS011;4979;51.014;6.678;2022-08-21T14:37:10;3.03;;;1.40;;
9880;SDS011;4979;51.014;6.678;2022-08-21T14:39:35;4.13;;;1.52;;
9880;SDS011;4979;51.014;6.678;2022-08-21T14:42:01;2.60;;;1.30;;
9880;SDS011;4979;51.014;6.678;2022-08-21T14:44:27;4.93;;;1.70;;
9880;SDS011;4979;51.014;6.678;2022-08-21T14:46:53;3.83;;;1.52;;
9880;SDS011;4979;51.014;6.678;2022-08-21T14:49:18;2.13;;;1.42;;
9880;SDS011;4979;51.014;6.678;2022-08-21T14:51:44;2.30;;;1.30;;
9880;SDS011;4979;51.014;6.678;2022-08-21T14:54:09;1.58;;;1.33;;
9880;SDS011;4979;51.014;6.678;2022-08-21T14:56:35;5.45;;;1.50;;
9880;SDS011;4979;51.014;6.678;2022-08-21T14:59:03;2.58;;;1.40;;
9880;SDS011;4979;51.014;6.678;2022-08-21T15:01:30;4.32;;;1.83;;
9880;SDS011;4979;51.014;6.678;2022-08-21T15:04:00;3.05;;;1.73;;
9880;SDS011;4979;51.014;6.678;2022-08-21T15:06:26;3.42;;;1.42;;
9880;SDS011;4979;51.014;6.678;2022-08-21T15:08:51;2.15;;;1.58;;
9880;SDS011;4979;51.014;6.678;2022-08-21T15:11:18;2.50;;;1.42;;
9880;SDS011;4979;51.014;6.678;2022-08-21T15:13:45;2.75;;;1.50;;
9880;SDS011;4979;51.014;6.678;2022-08-21T15:16:12;2.00;;;1.10;;
9880;SDS011;4979;51.014;6.678;2022-08-21T15:18:38;4.25;;;1.30;;
9880;SDS011;4979;51.014;6.678;2022-08-21T15:21:05;2.53;;;1.50;;
9880;SDS011;4979;51.014;6.678;2022-08-21T15:23:30;1.90;;;1.38;;
9880;SDS011;4979;51.014;6.678;2022-08-21T15:25:56;5.22;;;1.40;;
9880;SDS011;4979;51.014;6.678;2022-08-21T15:28:23;5.13;;;1.30;;
9880;SDS011;4979;51.014;6.678;2022-08-21T15:30:49;4.80;;;1.40;;
9880;SDS011;4979;51.014;6.678;2022-08-21T15:33:16;2.42;;;1.25;;
9880;SDS011;4979;51.014;6.678;2022-08-21T15:35:42;3.42;;;1.40;;
9880;SDS011;4979;51.014;6.678;2022-08-21T15:38:08;1.92;;;1.33;;
9880;SDS011;4979;51.014;6.678;2022-08-21T15:40:34;3.42;;;1.55;;
9880;SDS011;4979;51.014;6.678;2022-08-21T15:43:01;3.65;;;1.73;;
9880;SDS011;4979;51.014;6.678;2022-08-21T15:45:29;3.30;;;1.60;;
9880;SDS011;4979;51.014;6.678;2022-08-21T15:47:55;4.80;;;1.75;;
9880;SDS011;4979;51.014;6.678;2022-08-21T15:50:22;2.95;;;1.27;;
9880;SDS011;4979;51.014;6.678;2022-08-21T15:52:48;3.45;;;1.67;;
9880;SDS011;4979;51.014;6.678;2022-08-21T15:55:15;2.97;;;1.55;;
9880;SDS011;4979;51.014;6.678;2022-08-21T15:57:42;2.85;;;1.45;;
9880;SDS011;4979;51.014;6.678;2022-08-21T16:00:12;3.30;;;1.70;;
9880;SDS011;4979;51.014;6.678;2022-08-21T16:02:43;5.88;;;4.43;;
9880;SDS011;4979;51.014;6.678;2022-08-21T16:05:11;2.42;;;1.50;;
9880;SDS011;4979;51.014;6.678;2022-08-21T16:07:41;5.57;;;1.70;;
9880;SDS011;4979;51.014;6.678;2022-08-21T16:10:08;7.03;;;1.58;;
9880;SDS011;4979;51.014;6.678;2022-08-21T16:12:36;3.03;;;1.40;;
9880;SDS011;4979;51.014;6.678;2022-08-21T16:15:07;2.40;;;1.50;;
9880;SDS011;4979;51.014;6.678;2022-08-21T16:17:35;3.42;;;1.67;;
9880;SDS011;4979;51.014;6.678;2022-08-21T16:20:04;4.70;;;1.77;;
9880;SDS011;4979;51.014;6.678;2022-08-21T16:22:33;3.75;;;2.10;;
9880;SDS011;4979;51.014;6.678;2022-08-21T16:24:59;4.45;;;1.50;;
9880;SDS011;4979;51.014;6.678;2022-08-21T16:27:24;4.65;;;1.58;;
9880;SDS011;4979;51.014;6.678;2022-08-21T16:29:50;2.72;;;1.60;;
9880;SDS011;4979;51.014;6.678;2022-08-21T16:32:16;5.00;;;1.60;;
9880;SDS011;4979;51.014;6.678;2022-08-21T16:34:42;1.55;;;1.30;;
9880;SDS011;4979;51.014;6.678;2022-08-21T16:37:11;3.35;;;1.67;;
9880;SDS011;4979;51.014;6.678;2022-08-21T16:39:37;2.00;;;1.35;;
9880;SDS011;4979;51.014;6.678;2022-08-21T16:42:03;3.40;;;1.70;;
9880;SDS011;4979;51.014;6.678;2022-08-21T16:44:30;2.05;;;1.52;;
9880;SDS011;4979;51.014;6.678;2022-08-21T16:46:55;4.55;;;1.60;;
9880;SDS011;4979;51.014;6.678;2022-08-21T16:49:22;3.85;;;2.03;;
9880;SDS011;4979;51.014;6.678;2022-08-21T16:51:47;2.78;;;1.50;;
9880;SDS011;4979;51.014;6.678;2022-08-21T16:54:13;4.70;;;1.67;;
9880;SDS011;4979;51.014;6.678;2022-08-21T16:56:39;4.18;;;1.52;;
9880;SDS011;4979;51.014;6.678;2022-08-21T16:59:05;5.18;;;1.98;;
9880;SDS011;4979;51.014;6.678;2022-08-21T17:01:31;5.05;;;2.55;;
9880;SDS011;4979;51.014;6.678;2022-08-21T17:03:58;7.05;;;2.85;;
9880;SDS011;4979;51.014;6.678;2022-08-21T17:06:24;3.42;;;1.63;;